createdAt,value
2019-02-20T00:00:51.828Z,85.90
2019-02-20T00:03:21.197Z,86.00
2019-02-20T00:05:50.562Z,85.80
2019-02-20T00:08:19.881Z,85.40
2019-02-20T00:10:49.183Z,85.10
2019-02-20T00:13:18.490Z,85.80
2019-02-20T00:15:47.802Z,86.30
2019-02-20T00:18:18.491Z,86.30
2019-02-20T00:20:47.861Z,85.80
2019-02-20T00:23:17.152Z,86.00
2019-02-20T00:25:46.459Z,86.40
2019-02-20T00:28:15.850Z,86.10
2019-02-20T00:30:45.200Z,85.90
2019-02-20T00:33:14.522Z,86.20
2019-02-20T00:35:43.833Z,86.40
2019-02-20T00:38:13.147Z,86.10
2019-02-20T00:40:42.459Z,86.20
2019-02-20T00:43:11.795Z,86.40
2019-02-20T00:45:43.002Z,86.30
2019-02-20T00:48:19.985Z,86.50
2019-02-20T00:50:50.937Z,86.40
2019-02-20T00:53:21.896Z,85.70
2019-02-20T00:55:51.484Z,85.90
2019-02-20T00:58:20.770Z,85.70
2019-02-20T01:00:50.075Z,85.90
2019-02-20T01:03:19.410Z,85.90
2019-02-20T01:05:48.712Z,86.30
2019-02-20T01:08:18.018Z,86.20
2019-02-20T01:10:47.342Z,86.40
2019-02-20T01:13:16.671Z,86.40
2019-02-20T01:15:45.975Z,86.10
2019-02-20T01:18:15.282Z,85.70
2019-02-20T01:20:44.593Z,85.70
2019-02-20T01:23:13.919Z,85.50
2019-02-20T01:25:43.251Z,85.90
2019-02-20T01:28:12.623Z,86.10
2019-02-20T01:30:41.935Z,86.30
2019-02-20T01:33:11.358Z,86.20
2019-02-20T01:35:40.670Z,86.60
2019-02-20T01:38:10.039Z,86.80
2019-02-20T01:40:39.351Z,87.10
2019-02-20T01:43:08.678Z,87.10
2019-02-20T01:45:38.009Z,87.00
2019-02-20T01:48:07.314Z,87.20
2019-02-20T01:50:36.628Z,87.00
2019-02-20T01:53:10.340Z,87.10
2019-02-20T01:55:37.931Z,87.50
2019-02-20T01:58:07.322Z,87.80
2019-02-20T02:00:36.646Z,88.00
2019-02-20T04:00:37.791Z,91.60
2019-02-20T04:03:07.196Z,91.30
2019-02-20T04:05:36.509Z,92.30
2019-02-20T04:08:05.824Z,91.00
2019-02-20T04:10:35.131Z,90.40
2019-02-20T04:13:04.443Z,89.60
2019-02-20T04:15:33.774Z,90.20
2019-02-20T04:18:03.166Z,90.30
2019-02-20T04:20:32.483Z,89.90
2019-02-20T04:23:01.799Z,89.20
2019-02-20T04:25:31.115Z,89.20
2019-02-20T04:28:00.525Z,89.50
2019-02-20T04:30:29.883Z,89.80
2019-02-20T04:32:59.206Z,89.30
2019-02-20T04:35:28.527Z,89.50
2019-02-20T04:37:57.847Z,89.40
2019-02-20T04:40:28.234Z,89.50
2019-02-20T04:42:58.538Z,89.70
2019-02-20T04:45:28.050Z,90.20
2019-02-20T04:47:57.525Z,90.40
2019-02-20T04:50:26.882Z,90.00
2019-02-20T04:52:56.195Z,90.20
2019-02-20T04:55:25.540Z,89.40
2019-02-20T04:58:19.280Z,89.60
2019-02-20T05:00:48.599Z,89.20
2019-02-20T05:03:17.926Z,88.70
2019-02-20T05:05:47.343Z,89.00
2019-02-20T05:08:16.785Z,89.20
2019-02-20T05:10:46.110Z,89.00
2019-02-20T05:13:15.398Z,88.60
2019-02-20T05:15:44.707Z,88.20
2019-02-20T05:18:14.107Z,88.20
2019-02-20T05:20:43.430Z,87.70
2019-02-20T05:23:12.765Z,88.20
2019-02-20T05:25:42.065Z,88.60
2019-02-20T05:28:11.388Z,88.60
2019-02-20T05:30:40.682Z,88.70
2019-02-20T05:33:11.043Z,88.80
2019-02-20T05:35:40.431Z,88.60
2019-02-20T05:38:09.783Z,88.60
2019-02-20T05:40:39.142Z,88.60
2019-02-20T05:43:08.451Z,87.90
2019-02-20T05:45:37.999Z,88.20
2019-02-20T05:48:07.329Z,88.60
2019-02-20T05:50:36.622Z,89.10
2019-02-20T05:53:05.936Z,88.90
2019-02-20T05:55:35.264Z,89.10
2019-02-20T05:58:04.712Z,89.10
2019-02-20T06:00:34.015Z,88.90
2019-02-20T06:03:04.908Z,89.00
2019-02-20T06:05:34.574Z,88.90
2019-02-20T06:08:03.894Z,88.70
2019-02-20T06:10:33.199Z,89.00
2019-02-20T06:13:02.527Z,88.80
2019-02-20T06:15:31.847Z,88.60
2019-02-20T06:18:01.166Z,88.80
2019-02-20T06:20:30.521Z,89.30
2019-02-20T06:22:59.850Z,89.50
2019-02-20T06:25:29.164Z,89.30
2019-02-20T06:27:58.465Z,89.80
2019-02-20T06:30:28.758Z,90.70
2019-02-20T06:32:58.123Z,90.20
2019-02-20T06:35:27.470Z,89.70
2019-02-20T06:37:56.794Z,89.60
2019-02-20T06:40:26.107Z,89.10
2019-02-20T06:42:55.487Z,88.40
2019-02-20T06:45:24.803Z,88.70
2019-02-20T06:47:54.119Z,88.40
2019-02-20T06:50:23.422Z,88.20
2019-02-20T06:52:52.729Z,88.10
2019-02-20T06:55:22.046Z,87.90
2019-02-20T06:57:51.471Z,87.80
2019-02-20T07:00:20.848Z,87.70
2019-02-20T07:02:50.165Z,88.00
2019-02-20T07:05:36.881Z,88.30
2019-02-20T07:08:11.890Z,88.30
2019-02-20T07:10:50.136Z,87.90
2019-02-20T07:13:21.726Z,88.00
2019-02-20T07:16:23.102Z,87.70
2019-02-20T07:18:55.491Z,87.90
2019-02-20T07:21:43.066Z,87.60
2019-02-20T07:27:29.278Z,87.80
2019-02-20T07:30:01.534Z,87.70
2019-02-20T07:32:31.191Z,87.70
2019-02-20T07:35:00.498Z,87.30
2019-02-20T07:37:29.807Z,88.00
2019-02-20T07:39:59.116Z,87.90
2019-02-20T07:42:28.455Z,87.10
2019-02-20T07:44:57.783Z,87.30
2019-02-20T07:47:27.098Z,87.10
2019-02-20T07:49:56.405Z,87.20
2019-02-20T07:52:25.724Z,87.30
2019-02-20T07:54:55.094Z,87.20
2019-02-20T07:57:24.427Z,86.40
2019-02-20T07:59:54.098Z,86.40
2019-02-20T08:02:23.848Z,86.00
2019-02-20T08:04:53.220Z,85.90
2019-02-20T08:07:22.560Z,86.40
2019-02-20T08:09:51.884Z,86.50
2019-02-20T08:12:21.196Z,86.60
2019-02-20T08:14:50.530Z,86.90
2019-02-20T08:17:20.179Z,86.90
2019-02-20T08:19:49.546Z,86.10
2019-02-20T08:22:18.862Z,86.00
2019-02-20T08:24:48.252Z,86.10
2019-02-20T08:27:17.558Z,86.70
2019-02-20T08:29:46.881Z,86.80
2019-02-20T08:32:16.201Z,86.50
2019-02-20T08:34:45.510Z,86.70
2019-02-20T08:37:14.818Z,86.50
2019-02-20T08:39:44.114Z,86.50
2019-02-20T08:42:13.447Z,86.20
2019-02-20T08:44:42.769Z,86.10
2019-02-20T08:47:18.035Z,85.60
2019-02-20T08:49:47.448Z,85.70
2019-02-20T08:52:16.763Z,86.10
2019-02-20T08:54:47.158Z,86.30
2019-02-20T08:57:16.472Z,86.10
2019-02-20T08:59:45.803Z,86.30
2019-02-20T09:02:15.138Z,86.20
2019-02-20T09:04:44.472Z,86.00
2019-02-20T09:07:13.775Z,85.70
2019-02-20T09:09:43.108Z,85.50
2019-02-20T09:12:12.407Z,85.20
2019-02-20T09:14:41.718Z,85.10
2019-02-20T09:17:11.047Z,84.70
2019-02-20T09:19:40.551Z,84.40
2019-02-20T09:22:09.843Z,84.30
2019-02-20T09:24:39.174Z,83.60
2019-02-20T09:27:08.484Z,84.50
2019-02-20T09:29:37.804Z,84.50
2019-02-20T09:32:07.116Z,84.20
2019-02-20T09:34:36.443Z,84.60
2019-02-20T09:37:05.738Z,84.60
2019-02-20T09:39:37.475Z,84.70
2019-02-20T09:42:07.518Z,85.10
2019-02-20T09:44:40.381Z,84.30
2019-02-20T09:47:10.670Z,84.80
2019-02-20T09:49:39.996Z,84.10
2019-02-20T09:52:09.317Z,83.80
2019-02-20T09:54:38.614Z,84.10
2019-02-20T09:57:08.589Z,84.70
2019-02-20T09:59:37.914Z,84.40
2019-02-20T10:02:07.225Z,83.50
2019-02-20T10:04:36.567Z,82.60
2019-02-20T10:07:05.865Z,81.90
2019-02-20T10:09:36.622Z,81.10
2019-02-20T10:12:06.214Z,79.90
2019-02-20T10:14:35.535Z,80.10
2019-02-20T10:17:04.822Z,80.10
2019-02-20T10:19:34.154Z,78.80
2019-02-20T10:22:03.482Z,74.60
2019-02-20T10:24:32.799Z,68.30
2019-02-20T10:27:02.103Z,64.70
2019-02-20T10:29:31.401Z,64.10
2019-02-20T10:32:00.730Z,62.60
2019-02-20T10:34:30.051Z,62.70
2019-02-20T10:36:59.495Z,63.50
2019-02-20T10:39:28.791Z,62.90
2019-02-20T10:41:58.121Z,62.90
2019-02-20T10:44:27.423Z,63.00
2019-02-20T10:46:56.752Z,63.90
2019-02-20T10:49:26.065Z,64.10
2019-02-20T10:51:55.394Z,63.30
2019-02-20T10:54:24.707Z,62.80
2019-02-20T10:56:54.027Z,62.20
2019-02-20T10:59:23.359Z,60.10
2019-02-20T11:01:53.753Z,59.20
2019-02-20T11:04:23.071Z,57.30
2019-02-20T11:06:52.403Z,55.10
2019-02-20T11:09:21.711Z,53.70
2019-02-20T11:11:51.030Z,54.60
2019-02-20T11:14:21.494Z,53.40
2019-02-20T11:16:50.818Z,52.60
2019-02-20T11:19:20.125Z,52.10
2019-02-20T11:21:49.459Z,52.50
2019-02-20T11:24:18.775Z,52.50
2019-02-20T11:26:54.685Z,52.40
2019-02-20T11:29:19.171Z,52.10
2019-02-20T11:31:49.572Z,52.30
2019-02-20T11:34:19.812Z,51.70
2019-02-20T11:36:49.506Z,52.00
2019-02-20T11:39:18.914Z,51.10
2019-02-20T11:41:48.246Z,50.70
2019-02-20T11:44:20.938Z,50.60
2019-02-20T11:46:48.578Z,50.60
2019-02-20T11:51:46.787Z,49.70
2019-02-20T11:54:16.107Z,50.00
2019-02-20T11:59:14.357Z,49.10
2019-02-20T12:01:43.687Z,49.10
2019-02-20T12:04:12.999Z,49.60
2019-02-20T12:06:42.334Z,49.70
2019-02-20T12:09:11.674Z,49.70
2019-02-20T12:11:41.048Z,49.40
2019-02-20T12:14:10.367Z,49.30
2019-02-20T12:16:39.679Z,49.10
2019-02-20T12:19:09.138Z,49.50
2019-02-20T12:21:38.438Z,49.70
2019-02-20T12:24:07.755Z,50.50
2019-02-20T12:26:37.070Z,50.60
2019-02-20T12:29:06.559Z,51.10
2019-02-20T12:31:35.889Z,50.60
2019-02-20T12:34:05.215Z,50.70
2019-02-20T12:36:34.519Z,51.00
2019-02-20T12:39:04.682Z,51.00
2019-02-20T12:41:34.468Z,51.10
2019-02-20T12:44:03.789Z,51.80
2019-02-20T12:46:33.094Z,53.20
2019-02-20T12:49:02.424Z,53.70
2019-02-20T12:51:31.729Z,54.90
2019-02-20T12:54:01.063Z,55.30
2019-02-20T12:56:30.376Z,56.40
2019-02-20T12:59:07.437Z,56.70
2019-02-20T13:01:30.717Z,56.80
2019-02-20T13:04:00.036Z,57.50
2019-02-20T13:06:29.797Z,58.30
2019-02-20T13:08:59.258Z,58.80
2019-02-20T13:11:28.639Z,59.10
2019-02-20T13:13:57.965Z,60.20
2019-02-20T13:16:27.275Z,60.90
2019-02-20T13:18:56.583Z,61.00
2019-02-20T13:21:25.894Z,61.10
2019-02-20T13:23:55.223Z,60.60
2019-02-20T13:26:24.531Z,61.00
2019-02-20T13:28:53.903Z,61.30
2019-02-20T13:31:23.218Z,61.30
2019-02-20T13:33:52.605Z,61.50
2019-02-20T13:36:21.997Z,61.90
2019-02-20T13:38:51.330Z,62.00
2019-02-20T13:41:20.656Z,61.50
2019-02-20T13:43:50.114Z,61.30
2019-02-20T13:46:20.490Z,60.80
2019-02-20T13:48:49.833Z,59.30
2019-02-20T13:51:19.315Z,58.00
2019-02-20T13:53:49.128Z,56.60
2019-02-20T13:56:19.434Z,56.30
2019-02-20T13:58:48.758Z,57.30
2019-02-20T14:01:18.078Z,58.80
2019-02-20T14:03:47.398Z,60.10
2019-02-20T14:06:16.790Z,59.30
2019-02-20T14:08:46.115Z,59.10
2019-02-20T14:11:15.444Z,59.20
2019-02-20T14:13:44.754Z,60.30
2019-02-20T14:16:14.903Z,61.10
2019-02-20T14:18:44.371Z,62.10
2019-02-20T14:21:13.694Z,62.70
2019-02-20T14:23:42.997Z,63.20
2019-02-20T14:26:12.321Z,63.60
2019-02-20T14:28:41.734Z,63.70
2019-02-20T14:31:11.043Z,63.30
2019-02-20T14:33:40.355Z,62.70
2019-02-20T14:36:09.684Z,62.40
2019-02-20T14:38:38.979Z,61.60
2019-02-20T14:41:08.669Z,60.90
2019-02-20T14:43:37.955Z,60.80
2019-02-20T14:46:07.313Z,60.80
2019-02-20T14:48:36.759Z,60.70
2019-02-20T14:51:06.073Z,61.10
2019-02-20T14:53:35.379Z,61.50
2019-02-20T14:56:05.135Z,61.90
2019-02-20T14:58:34.450Z,62.20
2019-02-20T15:01:06.006Z,62.50
2019-02-20T15:03:34.843Z,63.40
2019-02-20T15:06:04.422Z,63.80
2019-02-20T15:08:34.861Z,63.90
2019-02-20T15:11:04.555Z,63.90
2019-02-20T15:13:33.855Z,63.90
2019-02-20T15:16:03.173Z,63.70
2019-02-20T15:18:32.547Z,64.50
2019-02-20T15:21:02.741Z,65.20
2019-02-20T15:23:32.138Z,64.90
2019-02-20T15:26:01.835Z,65.20
2019-02-20T15:28:31.268Z,65.40
2019-02-20T15:31:02.182Z,65.40
2019-02-20T15:33:31.607Z,65.50
2019-02-20T15:36:01.916Z,65.30
2019-02-20T15:38:31.228Z,65.50
2019-02-20T15:41:00.955Z,65.50
2019-02-20T15:43:30.335Z,65.60
2019-02-20T15:45:59.635Z,65.80
2019-02-20T15:48:28.952Z,65.90
2019-02-20T15:50:58.284Z,66.20
2019-02-20T15:53:27.596Z,66.10
2019-02-20T15:55:56.915Z,66.60
2019-02-20T15:58:27.260Z,67.00
2019-02-20T16:00:56.810Z,66.70
2019-02-20T16:03:26.159Z,67.00
2019-02-20T16:05:55.464Z,67.60
2019-02-20T16:08:24.875Z,67.80
2019-02-20T16:10:55.203Z,68.10
2019-02-20T16:13:25.835Z,68.90
2019-02-20T16:15:55.154Z,69.40
2019-02-20T16:18:24.539Z,69.60
2019-02-20T16:20:53.844Z,70.50
2019-02-20T16:23:23.170Z,70.60
2019-02-20T16:25:52.483Z,70.80
2019-02-20T16:28:21.991Z,71.50
2019-02-20T16:30:52.350Z,71.60
2019-02-20T16:33:21.675Z,71.90
2019-02-20T16:35:50.973Z,72.30
2019-02-20T16:38:20.298Z,72.50
2019-02-20T16:40:49.608Z,72.90
2019-02-20T16:43:19.309Z,73.30
2019-02-20T16:45:49.025Z,73.40
2019-02-20T16:48:18.335Z,73.90
2019-02-20T16:50:47.651Z,74.00
2019-02-20T16:53:16.982Z,74.40
2019-02-20T16:55:46.275Z,74.60
2019-02-20T16:58:15.980Z,74.80
2019-02-20T17:00:45.280Z,75.20
2019-02-20T17:03:14.739Z,74.90
2019-02-20T17:05:44.176Z,74.90
2019-02-20T17:08:13.652Z,75.40
2019-02-20T17:11:02.329Z,75.50
2019-02-20T17:13:31.640Z,75.60
2019-02-20T17:16:00.984Z,75.80
2019-02-20T17:18:30.387Z,75.90
2019-02-20T17:20:59.756Z,76.20
2019-02-20T17:23:30.062Z,76.40
2019-02-20T17:25:59.439Z,76.50
2019-02-20T17:28:28.763Z,76.50
2019-02-20T17:30:58.378Z,76.80
2019-02-20T17:33:27.692Z,77.40
2019-02-20T17:35:57.002Z,77.20
2019-02-20T17:38:26.327Z,77.10
2019-02-20T17:40:55.798Z,77.30
2019-02-20T17:43:25.132Z,77.20
2019-02-20T17:45:54.523Z,77.40
2019-02-20T17:48:23.823Z,77.30
2019-02-20T17:50:53.219Z,77.40
2019-02-20T17:53:24.513Z,77.70
2019-02-20T17:55:53.538Z,77.70
2019-02-20T17:58:22.874Z,77.90
2019-02-20T18:00:52.223Z,78.40
2019-02-20T18:03:21.547Z,78.30
2019-02-20T18:05:50.852Z,78.20
2019-02-20T18:08:20.169Z,79.00
2019-02-20T18:10:49.929Z,78.90
2019-02-20T18:13:19.781Z,79.00
2019-02-20T18:15:50.322Z,79.20
2019-02-20T18:18:20.616Z,79.60
2019-02-20T18:20:50.000Z,79.30
2019-02-20T18:23:19.450Z,79.20
2019-02-20T18:25:49.116Z,79.40
2019-02-20T18:28:24.419Z,79.50
2019-02-20T18:30:49.737Z,79.60
2019-02-20T18:33:19.494Z,79.60
2019-02-20T18:35:48.958Z,79.70
2019-02-20T18:38:18.254Z,79.80
2019-02-20T18:40:47.577Z,79.70
2019-02-20T18:43:16.891Z,79.20
2019-02-20T18:45:46.243Z,79.40
2019-02-20T18:48:15.603Z,79.40
2019-02-20T18:50:45.120Z,80.00
2019-02-20T18:53:14.426Z,79.60
2019-02-20T18:55:45.536Z,79.80
2019-02-20T18:58:14.970Z,80.00
2019-02-20T19:00:44.363Z,80.00
2019-02-20T19:03:13.919Z,79.70
2019-02-20T19:05:43.244Z,79.60
2019-02-20T19:08:43.415Z,80.00
2019-02-20T19:11:31.345Z,79.90
2019-02-20T19:14:09.500Z,80.30
2019-02-20T19:17:02.731Z,80.10
2019-02-20T19:19:51.926Z,80.60
2019-02-20T19:22:47.067Z,80.60
2019-02-20T19:25:34.853Z,81.00
2019-02-20T19:28:15.509Z,80.60
2019-02-20T19:31:09.149Z,80.90
2019-02-20T19:33:46.426Z,81.10
2019-02-20T19:36:33.901Z,81.40
2019-02-20T19:39:15.710Z,81.50
2019-02-20T19:41:51.121Z,81.80
2019-02-20T19:44:35.977Z,82.00
2019-02-20T19:47:08.353Z,81.90
2019-02-20T19:50:01.088Z,81.60
2019-02-20T19:52:40.804Z,81.60
2019-02-20T19:55:24.915Z,81.70
2019-02-20T19:58:18.529Z,81.80
2019-02-20T20:00:59.806Z,82.10
2019-02-20T20:03:35.483Z,82.10
2019-02-20T20:06:23.101Z,82.10
2019-02-20T20:08:58.276Z,82.00
2019-02-20T20:11:44.239Z,81.70
2019-02-20T20:14:20.007Z,82.00
2019-02-20T20:19:45.249Z,81.70
2019-02-20T20:22:23.726Z,82.10
2019-02-20T20:24:57.230Z,82.00
2019-02-20T20:27:44.803Z,82.00
2019-02-20T20:30:35.498Z,82.00
2019-02-20T20:33:08.075Z,82.50
2019-02-20T20:36:03.204Z,82.90
2019-02-20T20:38:41.372Z,82.30
2019-02-20T20:41:22.479Z,82.00
2019-02-20T20:44:15.451Z,81.90
2019-02-20T20:47:03.141Z,82.00
2019-02-20T20:49:50.790Z,82.10
2019-02-20T20:52:44.278Z,82.30
2019-02-20T20:55:40.280Z,82.40
2019-02-20T20:58:29.608Z,82.60
2019-02-20T21:01:18.691Z,83.20
2019-02-20T21:04:07.823Z,82.80
2019-02-20T21:06:43.328Z,82.90
2019-02-20T21:09:15.801Z,82.80
2019-02-20T21:12:05.890Z,82.90
2019-02-20T21:14:50.169Z,82.90
2019-02-20T21:17:38.895Z,82.90
2019-02-20T21:20:17.530Z,82.70
2019-02-20T21:22:55.939Z,82.50
2019-02-20T21:25:34.563Z,82.50
2019-02-20T21:28:18.962Z,82.20
2019-02-20T21:31:09.568Z,81.90
2019-02-20T21:33:51.025Z,82.30
2019-02-20T21:36:26.202Z,82.90
2019-02-20T21:39:10.462Z,83.20
2019-02-20T21:41:58.439Z,83.50
2019-02-20T21:44:33.837Z,83.60
2019-02-20T21:47:24.129Z,83.50
2019-02-20T21:50:02.465Z,83.20
2019-02-20T21:53:03.494Z,83.00
2019-02-20T21:55:52.964Z,82.80
2019-02-20T21:58:28.119Z,82.80
2019-02-20T22:01:20.263Z,82.80
2019-02-20T22:04:10.649Z,83.50
2019-02-20T22:06:53.174Z,83.70
2019-02-20T22:09:43.628Z,83.60
2019-02-20T22:12:50.603Z,83.60
2019-02-20T22:15:38.918Z,83.00
2019-02-20T22:18:11.319Z,82.80
2019-02-20T22:21:00.400Z,82.90
2019-02-20T22:23:47.982Z,82.80
2019-02-20T22:26:29.213Z,82.80
2019-02-20T22:29:21.030Z,83.20
2019-02-20T22:32:22.110Z,83.60
2019-02-20T22:35:00.350Z,83.60
2019-02-20T22:37:54.227Z,83.80
2019-02-20T22:40:52.526Z,84.00
2019-02-20T22:43:30.462Z,83.80
2019-02-20T22:46:36.722Z,84.10
2019-02-20T22:49:18.130Z,84.20
2019-02-20T22:51:56.206Z,84.40
2019-02-20T22:54:28.596Z,84.00
2019-02-20T22:57:10.257Z,83.90
2019-02-20T23:00:09.512Z,84.10
2019-02-20T23:02:55.454Z,84.40
2019-02-20T23:06:03.247Z,84.30
2019-02-20T23:09:02.487Z,84.30
2019-02-20T23:11:50.738Z,84.20
2019-02-20T23:14:42.209Z,84.10
2019-02-20T23:17:11.595Z,84.20
2019-02-20T23:19:40.997Z,84.10
2019-02-20T23:22:10.330Z,84.00
2019-02-20T23:24:42.026Z,84.20
2019-02-20T23:27:10.664Z,84.10
2019-02-20T23:29:39.975Z,83.90
2019-02-20T23:32:09.287Z,83.60
2019-02-20T23:34:38.594Z,83.30
2019-02-20T23:37:07.920Z,83.30
2019-02-20T23:39:37.226Z,83.50
2019-02-20T23:42:06.547Z,84.00
2019-02-20T23:44:35.851Z,84.20
2019-02-20T23:47:05.155Z,84.10
2019-02-20T23:49:34.480Z,83.80
2019-02-20T23:52:03.790Z,83.60
2019-02-20T23:54:33.120Z,84.20
2019-02-20T23:57:02.432Z,84.40
2019-02-20T23:59:31.861Z,83.90
